sensor_id;sensor_type;location;lat;lon;timestamp;P1;durP1;ratioP1;P2;durP2;ratioP2
34896;SDS011;43407;51.828;-2.298;2023-04-30T00:01:52;19.45;;;15.85;;
34896;SDS011;43407;51.828;-2.298;2023-04-30T00:04:17;20.92;;;15.15;;
34896;SDS011;43407;51.828;-2.298;2023-04-30T00:06:43;18.90;;;15.38;;
34896;SDS011;43407;51.828;-2.298;2023-04-30T00:09:08;17.25;;;14.07;;
34896;SDS011;43407;51.828;-2.298;2023-04-30T00:11:34;18.33;;;14.27;;
34896;SDS011;43407;51.828;-2.298;2023-04-30T00:13:59;18.48;;;14.27;;
34896;SDS011;43407;51.828;-2.298;2023-04-30T00:16:25;19.83;;;14.98;;
34896;SDS011;43407;51.828;-2.298;2023-04-30T00:18:51;19.65;;;15.48;;
34896;SDS011;43407;51.828;-2.298;2023-04-30T00:21:16;18.27;;;15.18;;
34896;SDS011;43407;51.828;-2.298;2023-04-30T00:23:42;20.83;;;14.70;;
34896;SDS011;43407;51.828;-2.298;2023-04-30T00:26:07;19.92;;;14.45;;
34896;SDS011;43407;51.828;-2.298;2023-04-30T00:28:33;18.70;;;14.07;;
34896;SDS011;43407;51.828;-2.298;2023-04-30T00:30:58;16.83;;;13.40;;
34896;SDS011;43407;51.828;-2.298;2023-04-30T00:33:24;16.42;;;13.20;;
34896;SDS011;43407;51.828;-2.298;2023-04-30T00:35:49;14.82;;;11.90;;
34896;SDS011;43407;51.828;-2.298;2023-04-30T00:38:15;17.52;;;13.95;;
34896;SDS011;43407;51.828;-2.298;2023-04-30T00:40:41;15.02;;;12.73;;
34896;SDS011;43407;51.828;-2.298;2023-04-30T00:43:07;11.10;;;9.60;;
34896;SDS011;43407;51.828;-2.298;2023-04-30T00:45:33;14.27;;;11.75;;
34896;SDS011;43407;51.828;-2.298;2023-04-30T00:47:59;15.35;;;12.90;;
34896;SDS011;43407;51.828;-2.298;2023-04-30T00:50:25;15.30;;;12.70;;
34896;SDS011;43407;51.828;-2.298;2023-04-30T00:52:50;16.85;;;12.80;;
34896;SDS011;43407;51.828;-2.298;2023-04-30T00:55:16;14.32;;;12.73;;
34896;SDS011;43407;51.828;-2.298;2023-04-30T00:57:42;16.58;;;13.02;;
34896;SDS011;43407;51.828;-2.298;2023-04-30T01:00:08;17.15;;;13.20;;
34896;SDS011;43407;51.828;-2.298;2023-04-30T01:02:38;13.88;;;12.18;;
34896;SDS011;43407;51.828;-2.298;2023-04-30T01:05:04;14.20;;;12.10;;
34896;SDS011;43407;51.828;-2.298;2023-04-30T01:07:30;15.80;;;12.60;;
34896;SDS011;43407;51.828;-2.298;2023-04-30T01:09:55;14.60;;;12.27;;
34896;SDS011;43407;51.828;-2.298;2023-04-30T01:15:21;14.43;;;12.20;;
34896;SDS011;43407;51.828;-2.298;2023-04-30T01:20:19;15.13;;;12.10;;
34896;SDS011;43407;51.828;-2.298;2023-04-30T01:22:49;13.23;;;11.38;;
34896;SDS011;43407;51.828;-2.298;2023-04-30T01:30:28;13.07;;;11.18;;
34896;SDS011;43407;51.828;-2.298;2023-04-30T01:32:55;15.70;;;12.45;;
34896;SDS011;43407;51.828;-2.298;2023-04-30T01:35:20;14.77;;;12.30;;
34896;SDS011;43407;51.828;-2.298;2023-04-30T01:38:15;13.73;;;11.63;;
34896;SDS011;43407;51.828;-2.298;2023-04-30T01:40:56;17.40;;;12.95;;
34896;SDS011;43407;51.828;-2.298;2023-04-30T01:43:37;15.73;;;12.05;;
34896;SDS011;43407;51.828;-2.298;2023-04-30T01:51:44;15.38;;;11.98;;
34896;SDS011;43407;51.828;-2.298;2023-04-30T01:56:53;14.02;;;10.57;;
34896;SDS011;43407;51.828;-2.298;2023-04-30T01:59:29;12.38;;;11.07;;
34896;SDS011;43407;51.828;-2.298;2023-04-30T02:01:56;14.93;;;11.65;;
34896;SDS011;43407;51.828;-2.298;2023-04-30T02:04:21;12.95;;;10.77;;
34896;SDS011;43407;51.828;-2.298;2023-04-30T02:06:47;15.10;;;11.88;;
34896;SDS011;43407;51.828;-2.298;2023-04-30T02:09:12;11.93;;;10.07;;
34896;SDS011;43407;51.828;-2.298;2023-04-30T02:11:38;14.13;;;11.57;;
34896;SDS011;43407;51.828;-2.298;2023-04-30T02:14:04;12.85;;;10.77;;
34896;SDS011;43407;51.828;-2.298;2023-04-30T02:16:31;13.25;;;11.18;;
34896;SDS011;43407;51.828;-2.298;2023-04-30T02:18:56;15.27;;;11.38;;
34896;SDS011;43407;51.828;-2.298;2023-04-30T02:21:22;14.98;;;12.48;;
34896;SDS011;43407;51.828;-2.298;2023-04-30T02:23:47;13.55;;;11.13;;
34896;SDS011;43407;51.828;-2.298;2023-04-30T02:26:13;14.85;;;12.18;;
34896;SDS011;43407;51.828;-2.298;2023-04-30T02:28:39;15.30;;;11.98;;
34896;SDS011;43407;51.828;-2.298;2023-04-30T02:31:04;14.13;;;11.98;;
34896;SDS011;43407;51.828;-2.298;2023-04-30T02:33:30;14.23;;;11.75;;
34896;SDS011;43407;51.828;-2.298;2023-04-30T02:35:57;13.05;;;9.52;;
34896;SDS011;43407;51.828;-2.298;2023-04-30T02:38:24;15.00;;;11.25;;
34896;SDS011;43407;51.828;-2.298;2023-04-30T02:40:49;16.45;;;12.20;;
34896;SDS011;43407;51.828;-2.298;2023-04-30T02:43:15;11.73;;;9.82;;
34896;SDS011;43407;51.828;-2.298;2023-04-30T02:45:40;15.88;;;12.88;;
34896;SDS011;43407;51.828;-2.298;2023-04-30T02:48:06;17.08;;;12.60;;
34896;SDS011;43407;51.828;-2.298;2023-04-30T02:50:31;15.30;;;11.88;;
34896;SDS011;43407;51.828;-2.298;2023-04-30T02:52:57;14.40;;;11.38;;
34896;SDS011;43407;51.828;-2.298;2023-04-30T02:55:22;15.93;;;14.00;;
34896;SDS011;43407;51.828;-2.298;2023-04-30T02:57:48;16.08;;;13.20;;
34896;SDS011;43407;51.828;-2.298;2023-04-30T03:00:13;17.33;;;12.52;;
34896;SDS011;43407;51.828;-2.298;2023-04-30T03:02:39;15.55;;;12.25;;
34896;SDS011;43407;51.828;-2.298;2023-04-30T03:05:05;16.08;;;11.95;;
34896;SDS011;43407;51.828;-2.298;2023-04-30T03:07:30;22.55;;;15.02;;
34896;SDS011;43407;51.828;-2.298;2023-04-30T03:09:56;22.30;;;15.40;;
34896;SDS011;43407;51.828;-2.298;2023-04-30T03:12:21;23.75;;;17.25;;
34896;SDS011;43407;51.828;-2.298;2023-04-30T03:14:47;20.35;;;16.90;;
34896;SDS011;43407;51.828;-2.298;2023-04-30T03:17:12;18.13;;;14.45;;
34896;SDS011;43407;51.828;-2.298;2023-04-30T03:19:38;21.95;;;16.35;;
34896;SDS011;43407;51.828;-2.298;2023-04-30T03:22:03;22.42;;;17.55;;
34896;SDS011;43407;51.828;-2.298;2023-04-30T03:24:29;19.70;;;16.00;;
34896;SDS011;43407;51.828;-2.298;2023-04-30T03:26:55;28.90;;;20.95;;
34896;SDS011;43407;51.828;-2.298;2023-04-30T03:29:20;21.52;;;17.67;;
34896;SDS011;43407;51.828;-2.298;2023-04-30T03:31:46;24.17;;;19.23;;
34896;SDS011;43407;51.828;-2.298;2023-04-30T03:34:11;22.92;;;19.05;;
34896;SDS011;43407;51.828;-2.298;2023-04-30T03:36:37;21.17;;;17.02;;
34896;SDS011;43407;51.828;-2.298;2023-04-30T03:39:02;27.15;;;19.75;;
34896;SDS011;43407;51.828;-2.298;2023-04-30T03:41:28;22.75;;;18.67;;
34896;SDS011;43407;51.828;-2.298;2023-04-30T03:43:53;26.55;;;18.23;;
34896;SDS011;43407;51.828;-2.298;2023-04-30T03:46:19;26.40;;;18.13;;
34896;SDS011;43407;51.828;-2.298;2023-04-30T03:48:45;21.75;;;18.08;;
34896;SDS011;43407;51.828;-2.298;2023-04-30T03:51:10;23.50;;;17.55;;
34896;SDS011;43407;51.828;-2.298;2023-04-30T03:53:36;30.95;;;21.55;;
34896;SDS011;43407;51.828;-2.298;2023-04-30T03:56:02;24.80;;;19.45;;
34896;SDS011;43407;51.828;-2.298;2023-04-30T03:58:28;26.02;;;18.75;;
34896;SDS011;43407;51.828;-2.298;2023-04-30T04:00:54;22.85;;;17.88;;
34896;SDS011;43407;51.828;-2.298;2023-04-30T04:03:19;19.30;;;15.80;;
34896;SDS011;43407;51.828;-2.298;2023-04-30T04:05:45;24.73;;;17.33;;
34896;SDS011;43407;51.828;-2.298;2023-04-30T04:08:11;23.77;;;17.02;;
34896;SDS011;43407;51.828;-2.298;2023-04-30T04:10:37;22.58;;;17.52;;
34896;SDS011;43407;51.828;-2.298;2023-04-30T04:13:03;20.02;;;15.52;;
34896;SDS011;43407;51.828;-2.298;2023-04-30T04:15:29;19.50;;;15.63;;
34896;SDS011;43407;51.828;-2.298;2023-04-30T04:17:54;16.83;;;13.40;;
34896;SDS011;43407;51.828;-2.298;2023-04-30T04:20:20;17.63;;;14.18;;
34896;SDS011;43407;51.828;-2.298;2023-04-30T04:22:45;24.60;;;19.02;;
34896;SDS011;43407;51.828;-2.298;2023-04-30T04:25:11;18.60;;;15.32;;
34896;SDS011;43407;51.828;-2.298;2023-04-30T04:27:37;23.30;;;17.25;;
34896;SDS011;43407;51.828;-2.298;2023-04-30T04:30:03;22.85;;;17.45;;
34896;SDS011;43407;51.828;-2.298;2023-04-30T04:32:29;20.23;;;16.60;;
34896;SDS011;43407;51.828;-2.298;2023-04-30T04:34:56;21.85;;;17.13;;
34896;SDS011;43407;51.828;-2.298;2023-04-30T04:37:22;19.88;;;16.25;;
34896;SDS011;43407;51.828;-2.298;2023-04-30T04:39:48;25.15;;;19.48;;
34896;SDS011;43407;51.828;-2.298;2023-04-30T04:42:14;23.65;;;19.08;;
34896;SDS011;43407;51.828;-2.298;2023-04-30T04:44:40;26.95;;;21.27;;
34896;SDS011;43407;51.828;-2.298;2023-04-30T04:47:07;25.63;;;21.13;;
34896;SDS011;43407;51.828;-2.298;2023-04-30T04:49:34;19.42;;;15.77;;
34896;SDS011;43407;51.828;-2.298;2023-04-30T04:51:59;25.25;;;19.30;;
34896;SDS011;43407;51.828;-2.298;2023-04-30T04:54:26;22.17;;;18.58;;
34896;SDS011;43407;51.828;-2.298;2023-04-30T04:56:51;22.77;;;18.42;;
34896;SDS011;43407;51.828;-2.298;2023-04-30T04:59:17;23.88;;;17.95;;
34896;SDS011;43407;51.828;-2.298;2023-04-30T05:01:43;18.15;;;15.10;;
34896;SDS011;43407;51.828;-2.298;2023-04-30T05:04:08;22.38;;;17.33;;
34896;SDS011;43407;51.828;-2.298;2023-04-30T05:06:34;21.98;;;17.30;;
34896;SDS011;43407;51.828;-2.298;2023-04-30T05:09:00;21.83;;;16.40;;
34896;SDS011;43407;51.828;-2.298;2023-04-30T05:11:26;16.88;;;14.32;;
34896;SDS011;43407;51.828;-2.298;2023-04-30T05:13:51;21.02;;;17.95;;
34896;SDS011;43407;51.828;-2.298;2023-04-30T05:16:17;16.15;;;14.35;;
34896;SDS011;43407;51.828;-2.298;2023-04-30T05:18:42;19.50;;;17.30;;
34896;SDS011;43407;51.828;-2.298;2023-04-30T05:21:08;21.45;;;17.58;;
34896;SDS011;43407;51.828;-2.298;2023-04-30T05:23:33;23.52;;;17.02;;
34896;SDS011;43407;51.828;-2.298;2023-04-30T05:25:59;16.08;;;13.20;;
34896;SDS011;43407;51.828;-2.298;2023-04-30T05:28:24;21.05;;;17.02;;
34896;SDS011;43407;51.828;-2.298;2023-04-30T05:30:50;21.55;;;16.55;;
34896;SDS011;43407;51.828;-2.298;2023-04-30T05:33:16;20.52;;;16.38;;
34896;SDS011;43407;51.828;-2.298;2023-04-30T05:35:41;23.95;;;17.25;;
34896;SDS011;43407;51.828;-2.298;2023-04-30T05:38:07;21.98;;;18.00;;
34896;SDS011;43407;51.828;-2.298;2023-04-30T05:40:32;22.33;;;18.63;;
34896;SDS011;43407;51.828;-2.298;2023-04-30T05:42:58;22.75;;;19.75;;
34896;SDS011;43407;51.828;-2.298;2023-04-30T05:45:23;25.05;;;20.60;;
34896;SDS011;43407;51.828;-2.298;2023-04-30T05:47:49;23.75;;;18.23;;
34896;SDS011;43407;51.828;-2.298;2023-04-30T05:50:14;20.50;;;16.85;;
34896;SDS011;43407;51.828;-2.298;2023-04-30T05:52:40;23.08;;;17.80;;
34896;SDS011;43407;51.828;-2.298;2023-04-30T05:55:06;20.48;;;15.52;;
34896;SDS011;43407;51.828;-2.298;2023-04-30T05:57:32;24.60;;;18.90;;
34896;SDS011;43407;51.828;-2.298;2023-04-30T05:59:59;19.00;;;14.75;;
34896;SDS011;43407;51.828;-2.298;2023-04-30T06:02:24;18.40;;;15.07;;
34896;SDS011;43407;51.828;-2.298;2023-04-30T06:04:50;23.63;;;18.55;;
34896;SDS011;43407;51.828;-2.298;2023-04-30T06:07:16;20.45;;;15.98;;
34896;SDS011;43407;51.828;-2.298;2023-04-30T06:09:41;23.40;;;20.05;;
34896;SDS011;43407;51.828;-2.298;2023-04-30T06:12:07;25.98;;;21.52;;
34896;SDS011;43407;51.828;-2.298;2023-04-30T06:14:33;23.42;;;19.15;;
34896;SDS011;43407;51.828;-2.298;2023-04-30T06:16:59;25.35;;;19.55;;
34896;SDS011;43407;51.828;-2.298;2023-04-30T06:19:25;29.27;;;22.75;;
34896;SDS011;43407;51.828;-2.298;2023-04-30T06:21:50;28.40;;;21.98;;
34896;SDS011;43407;51.828;-2.298;2023-04-30T06:24:16;29.73;;;21.65;;
34896;SDS011;43407;51.828;-2.298;2023-04-30T06:26:41;26.83;;;22.13;;
34896;SDS011;43407;51.828;-2.298;2023-04-30T06:29:07;32.45;;;25.58;;
34896;SDS011;43407;51.828;-2.298;2023-04-30T06:31:33;31.95;;;24.70;;
34896;SDS011;43407;51.828;-2.298;2023-04-30T06:33:58;27.17;;;22.23;;
34896;SDS011;43407;51.828;-2.298;2023-04-30T06:36:24;30.48;;;24.85;;
34896;SDS011;43407;51.828;-2.298;2023-04-30T06:38:49;29.00;;;22.95;;
34896;SDS011;43407;51.828;-2.298;2023-04-30T06:41:15;25.73;;;22.08;;
34896;SDS011;43407;51.828;-2.298;2023-04-30T06:43:42;27.60;;;22.58;;
34896;SDS011;43407;51.828;-2.298;2023-04-30T06:46:07;25.58;;;20.10;;
34896;SDS011;43407;51.828;-2.298;2023-04-30T06:48:33;25.17;;;21.65;;
34896;SDS011;43407;51.828;-2.298;2023-04-30T06:50:58;25.58;;;19.48;;
34896;SDS011;43407;51.828;-2.298;2023-04-30T06:53:24;25.80;;;22.02;;
34896;SDS011;43407;51.828;-2.298;2023-04-30T06:55:49;23.40;;;20.48;;
34896;SDS011;43407;51.828;-2.298;2023-04-30T06:58:15;24.45;;;21.77;;
34896;SDS011;43407;51.828;-2.298;2023-04-30T07:00:42;27.80;;;20.95;;
34896;SDS011;43407;51.828;-2.298;2023-04-30T07:03:08;31.77;;;22.83;;
34896;SDS011;43407;51.828;-2.298;2023-04-30T07:05:33;26.60;;;22.25;;
34896;SDS011;43407;51.828;-2.298;2023-04-30T07:08:00;29.27;;;24.48;;
34896;SDS011;43407;51.828;-2.298;2023-04-30T07:10:26;28.88;;;23.20;;
34896;SDS011;43407;51.828;-2.298;2023-04-30T07:12:51;29.23;;;23.63;;
34896;SDS011;43407;51.828;-2.298;2023-04-30T07:15:17;27.05;;;22.88;;
34896;SDS011;43407;51.828;-2.298;2023-04-30T07:17:43;25.05;;;21.05;;
34896;SDS011;43407;51.828;-2.298;2023-04-30T07:20:08;24.27;;;20.58;;
34896;SDS011;43407;51.828;-2.298;2023-04-30T07:22:34;27.60;;;23.15;;
34896;SDS011;43407;51.828;-2.298;2023-04-30T07:25:00;30.63;;;24.08;;
34896;SDS011;43407;51.828;-2.298;2023-04-30T07:27:26;25.70;;;21.17;;
34896;SDS011;43407;51.828;-2.298;2023-04-30T07:29:52;22.45;;;18.92;;
34896;SDS011;43407;51.828;-2.298;2023-04-30T07:32:18;28.05;;;21.67;;
34896;SDS011;43407;51.828;-2.298;2023-04-30T07:34:44;26.00;;;22.63;;
34896;SDS011;43407;51.828;-2.298;2023-04-30T07:37:10;28.27;;;23.38;;
34896;SDS011;43407;51.828;-2.298;2023-04-30T07:39:35;29.10;;;20.65;;
34896;SDS011;43407;51.828;-2.298;2023-04-30T07:42:01;32.03;;;25.30;;
34896;SDS011;43407;51.828;-2.298;2023-04-30T07:44:28;26.13;;;21.92;;
34896;SDS011;43407;51.828;-2.298;2023-04-30T07:46:54;30.30;;;25.35;;
34896;SDS011;43407;51.828;-2.298;2023-04-30T07:49:20;29.33;;;24.55;;
34896;SDS011;43407;51.828;-2.298;2023-04-30T07:51:45;29.83;;;25.88;;
34896;SDS011;43407;51.828;-2.298;2023-04-30T07:54:11;25.52;;;21.70;;
34896;SDS011;43407;51.828;-2.298;2023-04-30T07:56:36;25.55;;;22.50;;
34896;SDS011;43407;51.828;-2.298;2023-04-30T07:59:02;25.95;;;21.20;;
34896;SDS011;43407;51.828;-2.298;2023-04-30T08:01:27;29.83;;;25.55;;
34896;SDS011;43407;51.828;-2.298;2023-04-30T08:03:53;33.83;;;26.65;;
34896;SDS011;43407;51.828;-2.298;2023-04-30T08:06:18;34.17;;;28.35;;
34896;SDS011;43407;51.828;-2.298;2023-04-30T08:08:44;36.22;;;28.30;;
34896;SDS011;43407;51.828;-2.298;2023-04-30T08:11:10;33.58;;;27.38;;
34896;SDS011;43407;51.828;-2.298;2023-04-30T08:13:36;29.17;;;25.13;;
34896;SDS011;43407;51.828;-2.298;2023-04-30T08:16:01;34.05;;;27.55;;
34896;SDS011;43407;51.828;-2.298;2023-04-30T08:18:28;31.33;;;26.35;;
34896;SDS011;43407;51.828;-2.298;2023-04-30T08:20:53;35.40;;;28.75;;
34896;SDS011;43407;51.828;-2.298;2023-04-30T08:23:19;40.13;;;29.08;;
34896;SDS011;43407;51.828;-2.298;2023-04-30T08:25:44;32.45;;;26.55;;
34896;SDS011;43407;51.828;-2.298;2023-04-30T08:28:10;26.77;;;23.87;;
34896;SDS011;43407;51.828;-2.298;2023-04-30T08:30:35;32.38;;;27.38;;
34896;SDS011;43407;51.828;-2.298;2023-04-30T08:33:01;33.75;;;28.15;;
34896;SDS011;43407;51.828;-2.298;2023-04-30T08:35:26;27.90;;;23.60;;
34896;SDS011;43407;51.828;-2.298;2023-04-30T08:37:54;30.83;;;24.92;;
34896;SDS011;43407;51.828;-2.298;2023-04-30T08:40:19;29.73;;;25.40;;
34896;SDS011;43407;51.828;-2.298;2023-04-30T08:42:54;33.45;;;26.83;;
34896;SDS011;43407;51.828;-2.298;2023-04-30T08:45:30;26.13;;;21.40;;
34896;SDS011;43407;51.828;-2.298;2023-04-30T08:47:57;34.72;;;26.55;;
34896;SDS011;43407;51.828;-2.298;2023-04-30T08:50:24;30.83;;;25.63;;
34896;SDS011;43407;51.828;-2.298;2023-04-30T08:52:49;30.52;;;26.35;;
34896;SDS011;43407;51.828;-2.298;2023-04-30T08:55:15;28.17;;;22.52;;
34896;SDS011;43407;51.828;-2.298;2023-04-30T08:57:41;33.83;;;26.52;;
34896;SDS011;43407;51.828;-2.298;2023-04-30T09:00:06;31.90;;;26.63;;
34896;SDS011;43407;51.828;-2.298;2023-04-30T09:02:33;31.70;;;24.92;;
34896;SDS011;43407;51.828;-2.298;2023-04-30T09:04:59;30.98;;;25.35;;
34896;SDS011;43407;51.828;-2.298;2023-04-30T09:07:25;30.73;;;23.77;;
34896;SDS011;43407;51.828;-2.298;2023-04-30T09:09:53;29.48;;;24.23;;
34896;SDS011;43407;51.828;-2.298;2023-04-30T09:12:18;29.35;;;24.45;;
34896;SDS011;43407;51.828;-2.298;2023-04-30T09:15:03;31.65;;;25.23;;
34896;SDS011;43407;51.828;-2.298;2023-04-30T09:17:30;33.55;;;26.00;;
34896;SDS011;43407;51.828;-2.298;2023-04-30T09:22:31;33.22;;;27.80;;
34896;SDS011;43407;51.828;-2.298;2023-04-30T09:24:57;32.80;;;27.45;;
34896;SDS011;43407;51.828;-2.298;2023-04-30T09:27:22;28.15;;;23.67;;
34896;SDS011;43407;51.828;-2.298;2023-04-30T09:29:48;33.65;;;26.85;;
34896;SDS011;43407;51.828;-2.298;2023-04-30T09:32:14;29.75;;;25.88;;
34896;SDS011;43407;51.828;-2.298;2023-04-30T09:34:39;34.08;;;27.13;;
34896;SDS011;43407;51.828;-2.298;2023-04-30T09:37:06;31.33;;;24.42;;
34896;SDS011;43407;51.828;-2.298;2023-04-30T09:39:32;30.50;;;26.00;;
34896;SDS011;43407;51.828;-2.298;2023-04-30T09:42:08;29.80;;;23.55;;
34896;SDS011;43407;51.828;-2.298;2023-04-30T09:44:36;27.55;;;22.80;;
34896;SDS011;43407;51.828;-2.298;2023-04-30T09:47:02;30.83;;;23.67;;
34896;SDS011;43407;51.828;-2.298;2023-04-30T09:49:28;30.48;;;21.92;;
34896;SDS011;43407;51.828;-2.298;2023-04-30T09:51:58;25.58;;;20.85;;
34896;SDS011;43407;51.828;-2.298;2023-04-30T09:54:26;29.13;;;22.45;;
34896;SDS011;43407;51.828;-2.298;2023-04-30T09:56:56;26.30;;;21.48;;
34896;SDS011;43407;51.828;-2.298;2023-04-30T09:59:33;26.50;;;21.90;;
34896;SDS011;43407;51.828;-2.298;2023-04-30T10:02:09;28.75;;;22.33;;
34896;SDS011;43407;51.828;-2.298;2023-04-30T10:04:38;25.88;;;20.48;;
34896;SDS011;43407;51.828;-2.298;2023-04-30T10:07:18;26.25;;;21.52;;
34896;SDS011;43407;51.828;-2.298;2023-04-30T10:10:17;30.05;;;21.42;;
34896;SDS011;43407;51.828;-2.298;2023-04-30T10:12:47;27.95;;;21.55;;
34896;SDS011;43407;51.828;-2.298;2023-04-30T10:15:18;26.17;;;20.45;;
34896;SDS011;43407;51.828;-2.298;2023-04-30T10:17:49;30.65;;;23.98;;
34896;SDS011;43407;51.828;-2.298;2023-04-30T10:20:37;35.95;;;27.85;;
34896;SDS011;43407;51.828;-2.298;2023-04-30T10:23:03;31.02;;;25.63;;
34896;SDS011;43407;51.828;-2.298;2023-04-30T10:25:29;31.20;;;23.23;;
34896;SDS011;43407;51.828;-2.298;2023-04-30T10:27:55;29.20;;;22.63;;
34896;SDS011;43407;51.828;-2.298;2023-04-30T10:30:20;27.10;;;22.02;;
34896;SDS011;43407;51.828;-2.298;2023-04-30T10:35:27;30.88;;;23.83;;
34896;SDS011;43407;51.828;-2.298;2023-04-30T10:40:44;31.08;;;23.55;;
34896;SDS011;43407;51.828;-2.298;2023-04-30T10:43:12;34.25;;;24.20;;
34896;SDS011;43407;51.828;-2.298;2023-04-30T10:45:38;29.38;;;23.98;;
34896;SDS011;43407;51.828;-2.298;2023-04-30T10:48:07;25.77;;;21.02;;
34896;SDS011;43407;51.828;-2.298;2023-04-30T10:50:38;30.23;;;23.20;;
34896;SDS011;43407;51.828;-2.298;2023-04-30T10:53:06;28.02;;;23.42;;
34896;SDS011;43407;51.828;-2.298;2023-04-30T10:55:32;31.70;;;24.33;;
34896;SDS011;43407;51.828;-2.298;2023-04-30T10:57:58;26.23;;;21.70;;
34896;SDS011;43407;51.828;-2.298;2023-04-30T11:00:24;28.98;;;21.75;;
34896;SDS011;43407;51.828;-2.298;2023-04-30T11:02:54;28.10;;;21.48;;
34896;SDS011;43407;51.828;-2.298;2023-04-30T11:05:38;28.73;;;22.88;;
34896;SDS011;43407;51.828;-2.298;2023-04-30T11:08:04;28.38;;;22.65;;
34896;SDS011;43407;51.828;-2.298;2023-04-30T11:10:33;24.85;;;20.38;;
34896;SDS011;43407;51.828;-2.298;2023-04-30T11:13:05;31.00;;;24.42;;
34896;SDS011;43407;51.828;-2.298;2023-04-30T11:15:38;24.10;;;18.77;;
34896;SDS011;43407;51.828;-2.298;2023-04-30T11:18:06;27.95;;;22.70;;
34896;SDS011;43407;51.828;-2.298;2023-04-30T11:20:32;23.00;;;19.42;;
34896;SDS011;43407;51.828;-2.298;2023-04-30T11:23:13;23.48;;;20.65;;
34896;SDS011;43407;51.828;-2.298;2023-04-30T11:28:24;24.25;;;20.73;;
34896;SDS011;43407;51.828;-2.298;2023-04-30T11:33:17;26.05;;;20.02;;
34896;SDS011;43407;51.828;-2.298;2023-04-30T11:35:43;21.98;;;19.27;;
34896;SDS011;43407;51.828;-2.298;2023-04-30T11:38:08;26.77;;;20.65;;
34896;SDS011;43407;51.828;-2.298;2023-04-30T11:40:37;31.63;;;24.20;;
34896;SDS011;43407;51.828;-2.298;2023-04-30T11:43:05;29.98;;;23.73;;
34896;SDS011;43407;51.828;-2.298;2023-04-30T11:45:31;32.80;;;23.98;;
34896;SDS011;43407;51.828;-2.298;2023-04-30T11:47:57;26.02;;;20.60;;
34896;SDS011;43407;51.828;-2.298;2023-04-30T11:50:23;25.42;;;21.75;;
34896;SDS011;43407;51.828;-2.298;2023-04-30T11:52:56;27.95;;;22.05;;
34896;SDS011;43407;51.828;-2.298;2023-04-30T11:55:23;25.60;;;19.05;;
34896;SDS011;43407;51.828;-2.298;2023-04-30T11:57:54;26.85;;;20.25;;
34896;SDS011;43407;51.828;-2.298;2023-04-30T12:00:29;22.10;;;17.75;;
34896;SDS011;43407;51.828;-2.298;2023-04-30T12:02:56;28.90;;;22.05;;
34896;SDS011;43407;51.828;-2.298;2023-04-30T12:05:22;28.63;;;22.15;;
34896;SDS011;43407;51.828;-2.298;2023-04-30T12:07:50;24.00;;;21.00;;
34896;SDS011;43407;51.828;-2.298;2023-04-30T12:10:20;25.75;;;20.50;;
34896;SDS011;43407;51.828;-2.298;2023-04-30T12:12:46;24.30;;;19.83;;
34896;SDS011;43407;51.828;-2.298;2023-04-30T12:15:14;21.83;;;18.52;;
34896;SDS011;43407;51.828;-2.298;2023-04-30T12:17:40;24.63;;;20.02;;
34896;SDS011;43407;51.828;-2.298;2023-04-30T12:20:07;22.92;;;18.67;;
34896;SDS011;43407;51.828;-2.298;2023-04-30T12:22:33;24.15;;;21.42;;
34896;SDS011;43407;51.828;-2.298;2023-04-30T12:25:04;25.55;;;19.48;;
34896;SDS011;43407;51.828;-2.298;2023-04-30T12:27:31;23.05;;;18.10;;
34896;SDS011;43407;51.828;-2.298;2023-04-30T12:30:01;20.13;;;17.50;;
34896;SDS011;43407;51.828;-2.298;2023-04-30T12:32:28;26.45;;;21.83;;
34896;SDS011;43407;51.828;-2.298;2023-04-30T12:34:56;30.60;;;22.02;;
34896;SDS011;43407;51.828;-2.298;2023-04-30T12:37:25;27.95;;;22.33;;
34896;SDS011;43407;51.828;-2.298;2023-04-30T12:39:50;25.48;;;19.90;;
34896;SDS011;43407;51.828;-2.298;2023-04-30T12:42:19;24.17;;;19.45;;
34896;SDS011;43407;51.828;-2.298;2023-04-30T12:44:45;26.25;;;20.23;;
34896;SDS011;43407;51.828;-2.298;2023-04-30T12:47:10;21.67;;;18.00;;
34896;SDS011;43407;51.828;-2.298;2023-04-30T12:49:38;22.48;;;17.80;;
34896;SDS011;43407;51.828;-2.298;2023-04-30T12:52:08;25.23;;;17.83;;
34896;SDS011;43407;51.828;-2.298;2023-04-30T12:54:35;21.05;;;15.75;;
34896;SDS011;43407;51.828;-2.298;2023-04-30T12:57:02;21.65;;;16.85;;
34896;SDS011;43407;51.828;-2.298;2023-04-30T12:59:33;21.40;;;16.02;;
34896;SDS011;43407;51.828;-2.298;2023-04-30T13:02:04;21.42;;;17.13;;
34896;SDS011;43407;51.828;-2.298;2023-04-30T13:04:34;19.87;;;16.57;;
34896;SDS011;43407;51.828;-2.298;2023-04-30T13:07:00;21.17;;;16.80;;
34896;SDS011;43407;51.828;-2.298;2023-04-30T13:09:26;22.65;;;18.15;;
34896;SDS011;43407;51.828;-2.298;2023-04-30T13:11:51;21.52;;;17.85;;
34896;SDS011;43407;51.828;-2.298;2023-04-30T13:14:18;20.23;;;15.50;;
34896;SDS011;43407;51.828;-2.298;2023-04-30T13:16:43;19.05;;;15.45;;
34896;SDS011;43407;51.828;-2.298;2023-04-30T13:19:09;23.67;;;16.77;;
34896;SDS011;43407;51.828;-2.298;2023-04-30T13:21:35;18.50;;;15.05;;
34896;SDS011;43407;51.828;-2.298;2023-04-30T13:24:01;17.85;;;13.18;;
34896;SDS011;43407;51.828;-2.298;2023-04-30T13:26:27;22.05;;;17.58;;
34896;SDS011;43407;51.828;-2.298;2023-04-30T13:28:53;18.98;;;16.88;;
34896;SDS011;43407;51.828;-2.298;2023-04-30T13:31:19;15.85;;;13.32;;
34896;SDS011;43407;51.828;-2.298;2023-04-30T13:33:46;14.55;;;12.82;;
34896;SDS011;43407;51.828;-2.298;2023-04-30T13:36:12;17.17;;;13.80;;
34896;SDS011;43407;51.828;-2.298;2023-04-30T13:38:37;18.75;;;15.90;;
34896;SDS011;43407;51.828;-2.298;2023-04-30T13:41:03;16.55;;;13.82;;
34896;SDS011;43407;51.828;-2.298;2023-04-30T13:43:29;16.60;;;13.68;;
34896;SDS011;43407;51.828;-2.298;2023-04-30T13:45:55;17.92;;;15.48;;
34896;SDS011;43407;51.828;-2.298;2023-04-30T13:48:22;18.50;;;15.05;;
34896;SDS011;43407;51.828;-2.298;2023-04-30T13:50:48;16.33;;;13.35;;
34896;SDS011;43407;51.828;-2.298;2023-04-30T13:53:14;14.65;;;12.88;;
34896;SDS011;43407;51.828;-2.298;2023-04-30T13:55:40;17.25;;;14.07;;
34896;SDS011;43407;51.828;-2.298;2023-04-30T13:58:06;18.75;;;15.32;;
34896;SDS011;43407;51.828;-2.298;2023-04-30T14:00:31;18.55;;;15.20;;
34896;SDS011;43407;51.828;-2.298;2023-04-30T14:02:57;16.42;;;13.80;;
34896;SDS011;43407;51.828;-2.298;2023-04-30T14:05:22;19.00;;;14.35;;
34896;SDS011;43407;51.828;-2.298;2023-04-30T14:07:48;17.88;;;15.10;;
34896;SDS011;43407;51.828;-2.298;2023-04-30T14:10:13;17.23;;;14.98;;
34896;SDS011;43407;51.828;-2.298;2023-04-30T14:12:39;17.80;;;14.48;;
34896;SDS011;43407;51.828;-2.298;2023-04-30T14:17:50;16.45;;;12.70;;
34896;SDS011;43407;51.828;-2.298;2023-04-30T14:20:17;17.65;;;13.63;;
34896;SDS011;43407;51.828;-2.298;2023-04-30T14:22:43;16.98;;;13.30;;
34896;SDS011;43407;51.828;-2.298;2023-04-30T14:25:09;13.60;;;12.10;;
34896;SDS011;43407;51.828;-2.298;2023-04-30T14:27:35;11.13;;;9.77;;
34896;SDS011;43407;51.828;-2.298;2023-04-30T14:30:01;14.48;;;11.55;;
34896;SDS011;43407;51.828;-2.298;2023-04-30T14:32:28;16.42;;;13.00;;
34896;SDS011;43407;51.828;-2.298;2023-04-30T14:34:53;15.77;;;12.88;;
34896;SDS011;43407;51.828;-2.298;2023-04-30T14:37:19;16.15;;;13.07;;
34896;SDS011;43407;51.828;-2.298;2023-04-30T14:39:45;16.73;;;14.07;;
34896;SDS011;43407;51.828;-2.298;2023-04-30T14:42:10;16.70;;;13.25;;